createdAt,value
2019-05-21T00:04:00.000Z,14.0
2019-05-21T00:09:00.000Z,13.9
2019-05-21T00:14:00.000Z,13.9
2019-05-21T00:19:00.000Z,13.9
2019-05-21T00:24:00.000Z,13.9
2019-05-21T00:29:00.000Z,13.8
2019-05-21T00:34:00.000Z,13.8
2019-05-21T00:39:00.000Z,13.8
2019-05-21T00:44:00.000Z,13.7
2019-05-21T00:49:00.000Z,13.8
2019-05-21T00:54:00.000Z,13.8
2019-05-21T00:59:00.000Z,13.8
2019-05-21T01:04:00.000Z,13.8
2019-05-21T01:10:00.000Z,13.8
2019-05-21T01:15:00.000Z,13.6
2019-05-21T01:20:00.000Z,13.4
2019-05-21T01:25:00.000Z,13.3
2019-05-21T01:30:00.000Z,13.3
2019-05-21T01:35:00.000Z,13.2
2019-05-21T01:40:00.000Z,13.1
2019-05-21T01:45:00.000Z,13.1
2019-05-21T01:50:00.000Z,13.1
2019-05-21T01:55:00.000Z,13.0
2019-05-21T02:00:00.000Z,13.0
2019-05-21T02:05:00.000Z,13.1
2019-05-21T02:10:00.000Z,13.1
2019-05-21T02:15:00.000Z,13.1
2019-05-21T02:20:00.000Z,13.1
2019-05-21T02:25:00.000Z,13.0
2019-05-21T02:30:00.000Z,13.0
2019-05-21T02:35:00.000Z,12.9
2019-05-21T02:40:00.000Z,12.8
2019-05-21T02:45:00.000Z,12.8
2019-05-21T02:50:00.000Z,12.7
2019-05-21T02:55:00.000Z,12.7
2019-05-21T03:00:00.000Z,12.6
2019-05-21T03:05:00.000Z,12.6
2019-05-21T03:11:00.000Z,12.5
2019-05-21T03:16:00.000Z,12.5
2019-05-21T03:21:00.000Z,12.5
2019-05-21T03:26:00.000Z,12.5
2019-05-21T03:31:00.000Z,12.5
2019-05-21T03:36:00.000Z,12.6
2019-05-21T03:41:00.000Z,12.7
2019-05-21T03:46:00.000Z,12.9
2019-05-21T03:51:00.000Z,13.0
2019-05-21T03:56:00.000Z,13.1
2019-05-21T04:01:00.000Z,13.1
2019-05-21T04:06:00.000Z,13.2
2019-05-21T04:11:00.000Z,13.3
2019-05-21T04:16:00.000Z,13.4
2019-05-21T04:21:00.000Z,13.6
2019-05-21T04:26:00.000Z,13.7
2019-05-21T04:31:00.000Z,13.8
2019-05-21T04:36:00.000Z,13.9
2019-05-21T04:42:00.000Z,14.0
2019-05-21T04:47:00.000Z,14.1
2019-05-21T04:52:00.000Z,14.3
2019-05-21T04:57:00.000Z,14.4
2019-05-21T05:02:00.000Z,14.5
2019-05-21T05:07:00.000Z,14.6
2019-05-21T05:12:00.000Z,14.7
2019-05-21T05:17:00.000Z,14.7
2019-05-21T05:22:00.000Z,14.8
2019-05-21T05:27:00.000Z,14.9
2019-05-21T05:32:00.000Z,14.9
2019-05-21T05:37:00.000Z,14.9
2019-05-21T05:42:00.000Z,14.9
2019-05-21T05:47:00.000Z,15.0
2019-05-21T05:52:00.000Z,15.0
2019-05-21T05:57:00.000Z,15.1
2019-05-21T06:02:00.000Z,15.2
2019-05-21T06:07:00.000Z,15.4
2019-05-21T06:13:00.000Z,15.4
2019-05-21T06:18:00.000Z,15.5
2019-05-21T06:23:00.000Z,15.7
2019-05-21T06:28:00.000Z,15.9
2019-05-21T06:33:00.000Z,15.9
2019-05-21T06:38:00.000Z,15.9
2019-05-21T06:43:00.000Z,15.9
2019-05-21T06:48:00.000Z,16.0
2019-05-21T06:53:00.000Z,16.2
2019-05-21T06:58:00.000Z,16.6
2019-05-21T07:03:00.000Z,17.3
2019-05-21T07:08:00.000Z,17.6
2019-05-21T07:13:00.000Z,18.1
2019-05-21T07:18:00.000Z,18.8
2019-05-21T07:23:00.000Z,19.6
2019-05-21T07:28:00.000Z,20.4
2019-05-21T07:33:00.000Z,21.3
2019-05-21T07:38:00.000Z,22.1
2019-05-21T07:43:00.000Z,22.6
2019-05-21T07:48:00.000Z,22.8
2019-05-21T07:53:00.000Z,23.2
2019-05-21T07:58:00.000Z,23.1
2019-05-21T08:03:00.000Z,22.8
2019-05-21T08:08:00.000Z,22.4
2019-05-21T08:14:00.000Z,21.7
2019-05-21T08:19:00.000Z,21.3
2019-05-21T08:24:00.000Z,21.0
2019-05-21T08:29:00.000Z,20.6
2019-05-21T08:34:00.000Z,20.0
2019-05-21T08:39:00.000Z,19.5
2019-05-21T08:44:00.000Z,19.0
2019-05-21T08:49:00.000Z,18.8
2019-05-21T08:54:00.000Z,18.6
2019-05-21T08:59:00.000Z,18.4
2019-05-21T09:04:00.000Z,18.1
2019-05-21T09:09:00.000Z,17.6
2019-05-21T09:14:00.000Z,17.1
2019-05-21T09:19:00.000Z,16.7
2019-05-21T09:24:00.000Z,16.4
2019-05-21T09:29:00.000Z,16.4
2019-05-21T09:34:00.000Z,16.4
2019-05-21T09:39:00.000Z,16.6
2019-05-21T09:44:00.000Z,16.6
2019-05-21T09:49:00.000Z,16.5
2019-05-21T09:54:00.000Z,16.5
2019-05-21T10:00:00.000Z,16.5
2019-05-21T10:05:00.000Z,16.4
2019-05-21T10:10:00.000Z,16.4
2019-05-21T10:15:00.000Z,16.4
2019-05-21T10:20:00.000Z,16.5
2019-05-21T10:25:00.000Z,16.5
2019-05-21T10:30:00.000Z,16.5
2019-05-21T10:35:00.000Z,16.5
2019-05-21T10:40:00.000Z,16.5
2019-05-21T10:45:00.000Z,16.6
2019-05-21T10:50:00.000Z,16.6
2019-05-21T10:55:00.000Z,16.5
2019-05-21T11:00:00.000Z,16.4
2019-05-21T11:05:00.000Z,16.4
2019-05-21T11:10:00.000Z,16.4
2019-05-21T11:15:00.000Z,16.4
2019-05-21T11:20:00.000Z,16.5
2019-05-21T11:25:00.000Z,16.6
2019-05-21T11:30:00.000Z,16.6
2019-05-21T11:35:00.000Z,16.6
2019-05-21T11:40:00.000Z,16.6
2019-05-21T11:45:00.000Z,16.6
2019-05-21T11:50:00.000Z,16.7
2019-05-21T11:55:00.000Z,16.7
2019-05-21T12:00:00.000Z,16.8
2019-05-21T12:05:00.000Z,16.8
2019-05-21T12:10:00.000Z,16.9
2019-05-21T12:15:00.000Z,16.9
2019-05-21T12:20:00.000Z,16.8
2019-05-21T12:25:00.000Z,16.8
2019-05-21T12:30:00.000Z,17.0
2019-05-21T12:35:00.000Z,17.3
2019-05-21T12:40:00.000Z,17.6
2019-05-21T12:45:00.000Z,17.6
2019-05-21T12:50:00.000Z,17.8
2019-05-21T12:55:00.000Z,18.1
2019-05-21T13:00:00.000Z,18.4
2019-05-21T13:05:00.000Z,18.5
2019-05-21T13:10:00.000Z,18.6
2019-05-21T13:15:00.000Z,18.7
2019-05-21T13:20:00.000Z,18.7
2019-05-21T13:25:00.000Z,18.8
2019-05-21T13:30:00.000Z,18.7
2019-05-21T13:35:00.000Z,18.6
2019-05-21T13:40:00.000Z,18.2
2019-05-21T13:45:00.000Z,17.8
2019-05-21T13:50:00.000Z,17.8
2019-05-21T13:55:00.000Z,17.7
2019-05-21T14:00:00.000Z,17.7
2019-05-21T14:05:00.000Z,17.4
2019-05-21T14:10:00.000Z,17.3
2019-05-21T14:15:00.000Z,17.2
2019-05-21T14:20:00.000Z,17.0
2019-05-21T14:25:00.000Z,16.8
2019-05-21T14:31:00.000Z,16.8
2019-05-21T14:36:00.000Z,16.8
2019-05-21T14:41:00.000Z,16.7
2019-05-21T14:46:00.000Z,16.6
2019-05-21T14:51:00.000Z,16.5
2019-05-21T14:56:00.000Z,16.5
2019-05-21T15:01:00.000Z,16.5
2019-05-21T15:06:00.000Z,16.5
2019-05-21T15:11:00.000Z,16.4
2019-05-21T15:16:00.000Z,16.3
2019-05-21T15:21:00.000Z,16.2
2019-05-21T15:26:00.000Z,16.2
2019-05-21T15:31:00.000Z,16.2
2019-05-21T15:36:00.000Z,16.2
2019-05-21T15:41:00.000Z,16.1
2019-05-21T15:46:00.000Z,16.1
2019-05-21T15:51:00.000Z,16.1
2019-05-21T15:56:00.000Z,16.2
2019-05-21T16:01:00.000Z,16.3
2019-05-21T16:06:00.000Z,16.5
2019-05-21T16:11:00.000Z,16.5
2019-05-21T16:16:00.000Z,16.5
2019-05-21T16:21:00.000Z,16.5
2019-05-21T16:26:00.000Z,16.4
2019-05-21T16:31:00.000Z,16.3
2019-05-21T16:36:00.000Z,16.3
2019-05-21T16:41:00.000Z,16.2
2019-05-21T16:46:00.000Z,16.0
2019-05-21T16:51:00.000Z,15.9
2019-05-21T16:56:00.000Z,15.8
2019-05-21T17:01:00.000Z,15.7
2019-05-21T17:06:00.000Z,15.7
2019-05-21T17:11:00.000Z,15.7
2019-05-21T17:17:00.000Z,15.7
2019-05-21T17:22:00.000Z,15.7
2019-05-21T17:27:00.000Z,15.7
2019-05-21T17:32:00.000Z,15.6
2019-05-21T17:37:00.000Z,15.6
2019-05-21T17:42:00.000Z,15.5
2019-05-21T17:47:00.000Z,15.4
2019-05-21T17:52:00.000Z,15.3
2019-05-21T17:57:00.000Z,15.1
2019-05-21T18:02:00.000Z,15.0
2019-05-21T18:07:00.000Z,14.9
2019-05-21T18:12:00.000Z,14.8
2019-05-21T18:17:00.000Z,14.7
2019-05-21T18:22:00.000Z,14.7
2019-05-21T18:27:00.000Z,14.6
2019-05-21T18:32:00.000Z,14.6
2019-05-21T18:37:00.000Z,14.6
2019-05-21T18:42:00.000Z,14.6
2019-05-21T18:47:00.000Z,14.5
2019-05-21T18:52:00.000Z,14.5
2019-05-21T18:57:00.000Z,14.5
2019-05-21T19:02:00.000Z,14.5
2019-05-21T19:07:00.000Z,14.5
2019-05-21T19:12:00.000Z,14.5
2019-05-21T19:17:00.000Z,14.6
2019-05-21T19:22:00.000Z,14.6
2019-05-21T19:27:00.000Z,14.6
2019-05-21T19:32:00.000Z,14.6
2019-05-21T19:37:00.000Z,14.6
2019-05-21T19:42:00.000Z,14.6
2019-05-21T19:47:00.000Z,14.6
2019-05-21T19:52:00.000Z,14.6
2019-05-21T19:57:00.000Z,14.6
2019-05-21T20:02:00.000Z,14.5
2019-05-21T20:07:00.000Z,14.5
2019-05-21T20:13:00.000Z,14.4
2019-05-21T20:18:00.000Z,14.4
2019-05-21T20:23:00.000Z,14.4
2019-05-21T20:28:00.000Z,14.3
2019-05-21T20:33:00.000Z,14.3
2019-05-21T20:38:00.000Z,14.3
2019-05-21T20:43:00.000Z,14.3
2019-05-21T20:48:00.000Z,14.3
2019-05-21T20:53:00.000Z,14.3
2019-05-21T20:58:00.000Z,14.3
2019-05-21T21:03:00.000Z,14.3
2019-05-21T21:08:00.000Z,14.3
2019-05-21T21:13:00.000Z,14.3
2019-05-21T21:18:00.000Z,14.3
2019-05-21T21:23:00.000Z,14.3
2019-05-21T21:28:00.000Z,14.3
2019-05-21T21:33:00.000Z,14.3
2019-05-21T21:38:00.000Z,14.3
2019-05-21T21:43:00.000Z,14.2
2019-05-21T21:48:00.000Z,14.2
2019-05-21T21:53:00.000Z,14.1
2019-05-21T21:58:00.000Z,14.1
2019-05-21T22:03:00.000Z,14.1
2019-05-21T22:08:00.000Z,14.0
2019-05-21T22:13:00.000Z,14.0
2019-05-21T22:18:00.000Z,14.0
2019-05-21T22:23:00.000Z,13.9
2019-05-21T22:28:00.000Z,13.9
2019-05-21T22:33:00.000Z,13.9
2019-05-21T22:38:00.000Z,13.9
2019-05-21T22:43:00.000Z,13.9
2019-05-21T22:48:00.000Z,13.8
2019-05-21T22:53:00.000Z,13.8
2019-05-21T22:58:00.000Z,13.8
2019-05-21T23:03:00.000Z,13.7
2019-05-21T23:08:00.000Z,13.7
2019-05-21T23:13:00.000Z,13.7
2019-05-21T23:18:00.000Z,13.7
2019-05-21T23:23:00.000Z,13.7
2019-05-21T23:28:00.000Z,13.7
2019-05-21T23:33:00.000Z,13.7
2019-05-21T23:38:00.000Z,13.7
2019-05-21T23:43:00.000Z,13.7
2019-05-21T23:48:00.000Z,13.7
2019-05-21T23:53:00.000Z,13.8
2019-05-21T23:58:00.000Z,13.8
